Time;durP1;ratioP1;P1;durP2;ratioP2;P2;SDS_P1;SDS_P2;PMS_P1;PMS_P2;Temp;Humidity;BMP_temperature;BMP_pressure;BME280_temperature;BME280_humidity;BME280_pressure;Samples;Min_cycle;Max_cycle;Signal;HPM_P1;HPM_P2
2022/04/13 00:00:49;;;;;;;0.30;0.30;;;;;;;;;;4975415;28;20230;-67
2022/04/13 00:03:16;;;;;;;0.20;0.20;;;;;;;;;;4975510;28;20209;-67
2022/04/13 00:05:44;;;;;;;0.00;0.00;;;;;;;;;;4975086;28;20574;-67
2022/04/13 00:08:11;;;;;;;0.00;0.00;;;;;;;;;;4975524;28;20198;-67
2022/04/13 00:10:39;;;;;;;0.00;0.00;;;;;;;;;;4975731;28;20210;-68
2022/04/13 00:13:08;;;;;;;0.00;0.00;;;;;;;;;;4975592;28;20238;-67
2022/04/13 00:15:37;;;;;;;0.00;0.00;;;;;;;;;;4974513;28;20198;-66
2022/04/13 00:18:06;;;;;;;0.00;0.00;;;;;;;;;;4975239;28;20362;-69
2022/04/13 00:20:34;;;;;;;0.00;0.00;;;;;;;;;;4975694;28;20285;-67
2022/04/13 00:23:02;;;;;;;0.00;0.00;;;;;;;;;;4975613;28;20205;-66
2022/04/13 00:25:29;;;;;;;0.10;0.10;;;;;;;;;;4974421;28;20205;-67
2022/04/13 00:27:57;;;;;;;0.00;0.00;;;;;;;;;;4975184;28;20642;-67
2022/04/13 00:30:26;;;;;;;0.00;0.00;;;;;;;;;;4974490;28;20209;-68
2022/04/13 00:32:53;;;;;;;0.00;0.00;;;;;;;;;;4975243;28;20324;-67
2022/04/13 00:35:21;;;;;;;0.00;0.00;;;;;;;;;;4974400;28;20203;-66
2022/04/13 00:37:48;;;;;;;0.00;0.00;;;;;;;;;;4974647;28;20297;-67
2022/04/13 00:40:15;;;;;;;0.00;0.00;;;;;;;;;;4975227;28;20211;-67
2022/04/13 00:42:43;;;;;;;0.00;0.00;;;;;;;;;;4975005;28;20568;-67
2022/04/13 00:45:10;;;;;;;0.00;0.00;;;;;;;;;;4973097;28;20195;-66
2022/04/13 00:47:40;;;;;;;0.00;0.00;;;;;;;;;;4974933;28;20202;-67
2022/04/13 00:50:08;;;;;;;0.00;0.00;;;;;;;;;;4975067;28;20207;-67
2022/04/13 00:52:37;;;;;;;0.00;0.00;;;;;;;;;;4974834;28;20229;-67
2022/04/13 00:55:08;;;;;;;0.00;0.00;;;;;;;;;;4973788;28;20205;-67
2022/04/13 00:57:36;;;;;;;0.00;0.00;;;;;;;;;;4974619;28;20202;-68
2022/04/13 01:00:04;;;;;;;0.00;0.00;;;;;;;;;;4974477;28;20234;-67
2022/04/13 01:02:32;;;;;;;0.00;0.00;;;;;;;;;;4974644;28;20667;-67
2022/04/13 01:05:03;;;;;;;0.00;0.00;;;;;;;;;;4973618;28;20210;-67
2022/04/13 01:07:31;;;;;;;0.00;0.00;;;;;;;;;;4974388;28;20525;-67
2022/04/13 01:10:00;;;;;;;0.03;0.03;;;;;;;;;;4974404;28;20576;-67
2022/04/13 01:12:28;;;;;;;0.00;0.00;;;;;;;;;;4974239;28;20261;-67
2022/04/13 01:14:55;;;;;;;2.00;1.90;;;;;;;;;;4973941;28;20210;-67
2022/04/13 01:17:23;;;;;;;0.00;0.00;;;;;;;;;;4974266;28;20225;-68
2022/04/13 01:19:51;;;;;;;0.00;0.00;;;;;;;;;;4974417;28;20198;-67
2022/04/13 01:22:21;;;;;;;0.00;0.00;;;;;;;;;;4974231;28;20206;-67
2022/04/13 01:24:48;;;;;;;0.10;0.10;;;;;;;;;;4972900;28;20206;-67
2022/04/13 01:27:16;;;;;;;0.00;0.00;;;;;;;;;;4974374;28;20199;-66
2022/04/13 01:29:43;;;;;;;0.00;0.00;;;;;;;;;;4974189;28;20222;-67
2022/04/13 01:32:11;;;;;;;0.00;0.00;;;;;;;;;;4974190;28;20237;-67
2022/04/13 01:34:38;;;;;;;0.00;0.00;;;;;;;;;;4974084;28;20198;-67
2022/04/13 01:37:05;;;;;;;0.00;0.00;;;;;;;;;;4971501;28;20686;-67
2022/04/13 01:39:34;;;;;;;0.00;0.00;;;;;;;;;;4973872;28;20198;-68
2022/04/13 01:42:01;;;;;;;0.00;0.00;;;;;;;;;;4973871;28;20202;-67
2022/04/13 01:44:29;;;;;;;0.00;0.00;;;;;;;;;;4973589;28;20579;-67
2022/04/13 01:46:56;;;;;;;0.00;0.00;;;;;;;;;;4971832;28;20202;-67
2022/04/13 01:49:23;;;;;;;0.40;0.30;;;;;;;;;;4973514;28;20214;-67
2022/04/13 01:51:51;;;;;;;0.30;0.30;;;;;;;;;;4973661;28;20668;-67
2022/04/13 01:54:18;;;;;;;0.00;0.00;;;;;;;;;;4973669;28;20230;-68
2022/04/13 01:56:47;;;;;;;0.30;0.30;;;;;;;;;;4973106;28;20210;-67
2022/04/13 01:59:14;;;;;;;0.67;0.57;;;;;;;;;;4973692;28;20210;-67
2022/04/13 02:01:44;;;;;;;0.20;0.20;;;;;;;;;;4973684;28;20237;-68
2022/04/13 02:04:17;;;;;;;0.97;0.83;;;;;;;;;;4972573;28;20671;-67
2022/04/13 02:06:44;;;;;;;0.00;0.00;;;;;;;;;;4972272;28;20221;-67
2022/04/13 02:09:12;;;;;;;0.00;0.00;;;;;;;;;;4973555;28;20202;-66
2022/04/13 02:11:39;;;;;;;0.23;0.23;;;;;;;;;;4973660;28;20207;-67
2022/04/13 02:14:10;;;;;;;0.20;0.20;;;;;;;;;;4973031;28;20273;-67
2022/04/13 02:16:38;;;;;;;0.00;0.00;;;;;;;;;;4973254;28;20214;-67
2022/04/13 02:19:06;;;;;;;0.00;0.00;;;;;;;;;;4973508;28;20209;-67
2022/04/13 02:21:34;;;;;;;0.00;0.00;;;;;;;;;;4973630;28;20214;-67
2022/04/13 02:24:01;;;;;;;0.00;0.00;;;;;;;;;;4973498;28;20667;-67
2022/04/13 02:26:29;;;;;;;0.60;0.60;;;;;;;;;;4972273;28;20679;-67
2022/04/13 02:28:56;;;;;;;0.00;0.00;;;;;;;;;;4973167;28;20200;-67
2022/04/13 02:31:25;;;;;;;0.27;0.20;;;;;;;;;;4972966;28;20206;-68
2022/04/13 02:33:54;;;;;;;0.07;0.07;;;;;;;;;;4973148;28;20230;-68
2022/04/13 02:36:21;;;;;;;0.10;0.10;;;;;;;;;;4971811;28;20566;-68
2022/04/13 02:38:48;;;;;;;4.13;1.10;;;;;;;;;;4973487;28;20202;-68
2022/04/13 02:41:16;;;;;;;1.47;0.47;;;;;;;;;;4973242;28;20209;-67
2022/04/13 02:43:44;;;;;;;1.33;1.33;;;;;;;;;;4973091;28;20202;-68
2022/04/13 02:46:11;;;;;;;1.17;0.23;;;;;;;;;;4971095;28;20230;-67
2022/04/13 02:48:40;;;;;;;0.90;0.90;;;;;;;;;;4973501;28;20690;-68
2022/04/13 02:51:07;;;;;;;0.33;0.33;;;;;;;;;;4977000;28;20199;-68
2022/04/13 02:53:34;;;;;;;0.40;0.40;;;;;;;;;;4976643;28;20241;-68
2022/04/13 02:56:02;;;;;;;0.00;0.00;;;;;;;;;;4977559;28;20194;-68
2022/04/13 02:58:29;;;;;;;0.53;0.53;;;;;;;;;;4977163;28;20201;-68
2022/04/13 03:00:57;;;;;;;0.77;0.77;;;;;;;;;;4977156;28;20249;-67
2022/04/13 03:03:25;;;;;;;0.00;0.00;;;;;;;;;;4976862;28;20236;-67
2022/04/13 03:05:54;;;;;;;0.00;0.00;;;;;;;;;;4975110;28;20213;-67
2022/04/13 03:08:21;;;;;;;0.00;0.00;;;;;;;;;;4976816;28;20194;-68
2022/04/13 03:10:49;;;;;;;0.00;0.00;;;;;;;;;;4976678;28;20195;-67
2022/04/13 03:13:16;;;;;;;0.00;0.00;;;;;;;;;;4976206;28;20237;-67
2022/04/13 03:15:43;;;;;;;0.00;0.00;;;;;;;;;;4975347;28;20206;-67
2022/04/13 03:18:11;;;;;;;0.17;0.10;;;;;;;;;;4976646;28;20269;-67
2022/04/13 03:20:38;;;;;;;0.00;0.00;;;;;;;;;;4976429;28;20571;-68
2022/04/13 03:23:07;;;;;;;0.00;0.00;;;;;;;;;;4976487;28;20206;-67
2022/04/13 03:25:34;;;;;;;0.10;0.10;;;;;;;;;;4975329;28;20202;-67
2022/04/13 03:28:01;;;;;;;0.00;0.00;;;;;;;;;;4976655;28;20585;-67
2022/04/13 03:30:29;;;;;;;0.23;0.23;;;;;;;;;;4976426;28;20202;-67
2022/04/13 03:32:56;;;;;;;0.60;0.30;;;;;;;;;;4976392;28;20199;-67
2022/04/13 03:35:23;;;;;;;0.13;0.13;;;;;;;;;;4973960;28;20588;-68
2022/04/13 03:37:51;;;;;;;0.00;0.00;;;;;;;;;;4976108;28;20660;-68
2022/04/13 03:40:20;;;;;;;0.57;0.57;;;;;;;;;;4975979;28;20194;-67
2022/04/13 03:42:47;;;;;;;0.00;0.00;;;;;;;;;;4976179;28;20559;-67
2022/04/13 03:45:15;;;;;;;0.00;0.00;;;;;;;;;;4973930;28;20213;-67
2022/04/13 03:47:43;;;;;;;0.00;0.00;;;;;;;;;;4976097;28;20202;-68
2022/04/13 03:50:11;;;;;;;0.47;0.47;;;;;;;;;;4975942;28;20198;-67
2022/04/13 03:52:38;;;;;;;0.00;0.00;;;;;;;;;;4975767;28;20199;-68
2022/04/13 03:55:07;;;;;;;0.00;0.00;;;;;;;;;;4974343;28;20229;-68
2022/04/13 03:57:36;;;;;;;0.27;0.27;;;;;;;;;;4976093;28;20209;-68
2022/04/13 04:00:04;;;;;;;0.00;0.00;;;;;;;;;;4975740;28;20230;-68
2022/04/13 04:02:32;;;;;;;0.00;0.00;;;;;;;;;;4975729;28;20198;-68
2022/04/13 04:05:03;;;;;;;0.07;0.07;;;;;;;;;;4974286;28;20202;-67
2022/04/13 04:07:30;;;;;;;0.00;0.00;;;;;;;;;;4975217;28;20253;-68
2022/04/13 04:09:57;;;;;;;2.07;1.93;;;;;;;;;;4975734;28;20199;-67
2022/04/13 04:12:25;;;;;;;0.00;0.00;;;;;;;;;;4975835;28;20209;-68
2022/04/13 04:14:53;;;;;;;0.00;0.00;;;;;;;;;;4974724;28;20284;-67
2022/04/13 04:17:21;;;;;;;0.73;0.73;;;;;;;;;;4975215;28;20204;-68
2022/04/13 04:19:48;;;;;;;0.00;0.00;;;;;;;;;;4975526;28;20575;-68
2022/04/13 04:22:15;;;;;;;0.00;0.00;;;;;;;;;;4975378;28;20202;-68
2022/04/13 04:24:43;;;;;;;0.00;0.00;;;;;;;;;;4974707;28;20210;-67
2022/04/13 04:27:10;;;;;;;0.00;0.00;;;;;;;;;;4975077;28;20203;-66
2022/04/13 04:29:37;;;;;;;0.00;0.00;;;;;;;;;;4975583;28;20202;-66
2022/04/13 04:32:07;;;;;;;0.57;0.57;;;;;;;;;;4975122;28;20199;-67
2022/04/13 04:34:34;;;;;;;0.00;0.00;;;;;;;;;;4974921;28;20389;-67
2022/04/13 04:37:02;;;;;;;0.00;0.00;;;;;;;;;;4973904;28;20217;-67
2022/04/13 04:39:29;;;;;;;0.00;0.00;;;;;;;;;;4975051;28;20199;-67
2022/04/13 04:41:57;;;;;;;0.00;0.00;;;;;;;;;;4975128;28;20202;-67
2022/04/13 04:44:24;;;;;;;0.00;0.00;;;;;;;;;;4974995;28;20198;-67
2022/04/13 04:46:51;;;;;;;0.00;0.00;;;;;;;;;;4973999;28;20205;-68
2022/04/13 04:49:20;;;;;;;0.20;0.20;;;;;;;;;;4974656;28;20202;-67
2022/04/13 04:51:47;;;;;;;0.00;0.00;;;;;;;;;;4975145;28;20205;-67
2022/04/13 04:54:15;;;;;;;0.20;0.20;;;;;;;;;;4974699;28;20226;-67
2022/04/13 04:56:42;;;;;;;0.00;0.00;;;;;;;;;;4974032;28;20198;-68
2022/04/13 04:59:09;;;;;;;0.00;0.00;;;;;;;;;;4974371;28;20194;-66
2022/04/13 05:01:37;;;;;;;0.00;0.00;;;;;;;;;;4973806;28;20238;-67
2022/04/13 05:04:04;;;;;;;0.63;0.57;;;;;;;;;;4974740;28;20559;-68
2022/04/13 05:06:33;;;;;;;0.00;0.00;;;;;;;;;;4974193;28;20206;-67
2022/04/13 05:09:00;;;;;;;0.00;0.00;;;;;;;;;;4974564;28;20202;-67
2022/04/13 05:11:28;;;;;;;0.00;0.00;;;;;;;;;;4974178;28;20209;-67
2022/04/13 05:13:55;;;;;;;0.00;0.00;;;;;;;;;;4974469;28;20223;-68
2022/04/13 05:16:22;;;;;;;0.00;0.00;;;;;;;;;;4972344;28;20202;-68
2022/04/13 05:18:50;;;;;;;0.00;0.00;;;;;;;;;;4974617;28;20194;-68
2022/04/13 05:21:17;;;;;;;0.00;0.00;;;;;;;;;;4974225;28;20199;-67
2022/04/13 05:23:46;;;;;;;0.00;0.00;;;;;;;;;;4974172;28;20651;-67
2022/04/13 05:26:18;;;;;;;0.00;0.00;;;;;;;;;;4972101;28;20202;-67
2022/04/13 05:28:47;;;;;;;0.00;0.00;;;;;;;;;;4974359;28;20224;-67
2022/04/13 05:31:15;;;;;;;0.00;0.00;;;;;;;;;;4974088;28;20202;-67
2022/04/13 05:33:42;;;;;;;0.00;0.00;;;;;;;;;;4974105;28;20706;-67
2022/04/13 05:36:09;;;;;;;0.00;0.00;;;;;;;;;;4973424;28;20682;-67
2022/04/13 05:38:39;;;;;;;0.27;0.27;;;;;;;;;;4973984;28;20376;-68
2022/04/13 05:41:08;;;;;;;0.00;0.00;;;;;;;;;;4973842;28;20242;-68
2022/04/13 05:43:36;;;;;;;0.00;0.00;;;;;;;;;;4973993;28;20202;-67
2022/04/13 05:46:04;;;;;;;0.00;0.00;;;;;;;;;;4973156;28;20297;-67
2022/04/13 05:48:31;;;;;;;0.00;0.00;;;;;;;;;;4974019;28;20262;-67
2022/04/13 05:50:59;;;;;;;0.00;0.00;;;;;;;;;;4973786;28;20573;-67
2022/04/13 05:53:27;;;;;;;0.00;0.00;;;;;;;;;;4973384;28;20198;-68
2022/04/13 05:55:56;;;;;;;0.00;0.00;;;;;;;;;;4972938;28;20285;-67
2022/04/13 05:58:26;;;;;;;0.00;0.00;;;;;;;;;;4973645;28;20663;-67
2022/04/13 06:00:54;;;;;;;0.00;0.00;;;;;;;;;;4973657;28;20238;-67
2022/04/13 06:03:23;;;;;;;0.00;0.00;;;;;;;;;;4973505;28;20202;-68
2022/04/13 06:05:51;;;;;;;0.00;0.00;;;;;;;;;;4972726;28;20222;-68
2022/04/13 06:08:18;;;;;;;0.13;0.13;;;;;;;;;;4973597;28;20301;-68
2022/04/13 06:10:46;;;;;;;0.43;0.43;;;;;;;;;;4973792;28;20293;-68
2022/04/13 06:13:13;;;;;;;0.00;0.00;;;;;;;;;;4973659;28;20194;-67
2022/04/13 06:15:44;;;;;;;0.00;0.00;;;;;;;;;;4972883;28;20699;-68
2022/04/13 06:18:11;;;;;;;0.00;0.00;;;;;;;;;;4973490;28;20226;-67
2022/04/13 06:20:39;;;;;;;0.40;0.40;;;;;;;;;;4973559;28;20202;-68
2022/04/13 06:23:06;;;;;;;0.00;0.00;;;;;;;;;;4973437;28;20710;-68
2022/04/13 06:25:34;;;;;;;0.20;0.20;;;;;;;;;;4972366;28;20685;-67
2022/04/13 06:28:01;;;;;;;0.00;0.00;;;;;;;;;;4973094;28;20544;-67
2022/04/13 06:30:28;;;;;;;0.00;0.00;;;;;;;;;;4972898;28;20194;-67
2022/04/13 06:32:57;;;;;;;0.50;0.50;;;;;;;;;;4973173;28;20685;-68
2022/04/13 06:35:25;;;;;;;0.10;0.10;;;;;;;;;;4971266;28;20234;-67
2022/04/13 06:37:52;;;;;;;0.30;0.27;;;;;;;;;;4973212;28;20206;-68
2022/04/13 06:40:19;;;;;;;0.00;0.00;;;;;;;;;;4973354;28;20198;-68
2022/04/13 06:42:48;;;;;;;0.10;0.10;;;;;;;;;;4973360;28;20224;-68
2022/04/13 06:45:16;;;;;;;0.00;0.00;;;;;;;;;;4971806;28;20198;-67
2022/04/13 06:47:44;;;;;;;0.23;0.23;;;;;;;;;;4953932;28;20210;-67
2022/04/13 06:50:13;;;;;;;0.47;0.47;;;;;;;;;;4954204;28;20274;-68
2022/04/13 06:52:42;;;;;;;0.20;0.20;;;;;;;;;;4954012;28;20221;-67
2022/04/13 06:55:10;;;;;;;0.47;0.40;;;;;;;;;;4953419;28;20235;-67
2022/04/13 06:57:38;;;;;;;0.20;0.20;;;;;;;;;;4972814;28;20727;-68
2022/04/13 07:00:06;;;;;;;0.00;0.00;;;;;;;;;;4972838;28;20238;-68
2022/04/13 07:02:34;;;;;;;1.03;0.90;;;;;;;;;;4971634;28;20207;-68
2022/04/13 07:05:01;;;;;;;1.00;1.00;;;;;;;;;;4973172;28;20198;-68
2022/04/13 07:07:30;;;;;;;0.93;0.60;;;;;;;;;;4972882;28;20206;-68
2022/04/13 07:09:57;;;;;;;0.27;0.27;;;;;;;;;;4972999;28;20289;-68
2022/04/13 07:12:25;;;;;;;0.67;0.47;;;;;;;;;;4972120;28;20289;-68
2022/04/13 07:14:54;;;;;;;0.50;0.50;;;;;;;;;;4972979;28;20321;-68
2022/04/13 07:17:21;;;;;;;0.73;0.63;;;;;;;;;;4972837;28;20201;-68
2022/04/13 07:19:48;;;;;;;0.30;0.30;;;;;;;;;;4972827;28;20584;-68
2022/04/13 07:22:16;;;;;;;0.13;0.13;;;;;;;;;;4972066;28;20206;-67
2022/04/13 07:24:44;;;;;;;0.30;0.30;;;;;;;;;;4972829;28;20198;-68
2022/04/13 07:27:12;;;;;;;0.60;0.60;;;;;;;;;;4972633;28;20194;-68
2022/04/13 07:29:39;;;;;;;0.53;0.53;;;;;;;;;;4972992;28;20206;-68
2022/04/13 07:32:08;;;;;;;0.73;0.73;;;;;;;;;;4972889;28;20206;-68
2022/04/13 07:34:36;;;;;;;0.00;0.00;;;;;;;;;;4970961;28;20230;-68
2022/04/13 07:37:04;;;;;;;0.97;0.97;;;;;;;;;;4972919;28;20289;-67
2022/04/13 07:39:31;;;;;;;0.57;0.40;;;;;;;;;;4972462;28;20209;-67
2022/04/13 07:42:00;;;;;;;0.30;0.30;;;;;;;;;;4972964;28;20386;-67
2022/04/13 07:44:27;;;;;;;0.27;0.10;;;;;;;;;;4974580;28;20207;-67
2022/04/13 07:46:56;;;;;;;0.17;0.17;;;;;;;;;;4971091;28;20198;-67
2022/04/13 07:49:23;;;;;;;0.00;0.00;;;;;;;;;;4975946;28;20202;-67
2022/04/13 07:51:51;;;;;;;0.00;0.00;;;;;;;;;;4975860;28;20205;-67
2022/04/13 07:54:18;;;;;;;0.73;0.43;;;;;;;;;;4978057;28;20206;-67
2022/04/13 07:56:45;;;;;;;0.33;0.33;;;;;;;;;;4976652;28;20698;-67
2022/04/13 07:59:14;;;;;;;0.33;0.33;;;;;;;;;;4978827;28;20537;-67
2022/04/13 08:01:41;;;;;;;0.33;0.33;;;;;;;;;;4973843;28;20310;-67
2022/04/13 08:04:09;;;;;;;0.03;0.03;;;;;;;;;;4975764;28;20206;-67
2022/04/13 08:06:36;;;;;;;0.13;0.13;;;;;;;;;;4973965;28;20266;-67
2022/04/13 08:09:03;;;;;;;0.10;0.10;;;;;;;;;;4956632;28;20217;-67
2022/04/13 08:11:31;;;;;;;0.10;0.10;;;;;;;;;;4956375;29;20543;-67
2022/04/13 08:13:58;;;;;;;0.00;0.00;;;;;;;;;;4956271;29;20294;-67
2022/04/13 08:16:28;;;;;;;0.00;0.00;;;;;;;;;;4957083;28;20231;-67
2022/04/13 08:18:55;;;;;;;0.10;0.10;;;;;;;;;;4975297;28;20210;-67
2022/04/13 08:21:23;;;;;;;0.07;0.07;;;;;;;;;;4974949;28;20202;-67
2022/04/13 08:23:50;;;;;;;0.00;0.00;;;;;;;;;;4975343;28;20663;-67
2022/04/13 08:26:17;;;;;;;0.00;0.00;;;;;;;;;;4974355;28;20202;-67
2022/04/13 08:28:45;;;;;;;0.27;0.27;;;;;;;;;;4974633;28;20209;-67
2022/04/13 08:31:12;;;;;;;0.10;0.10;;;;;;;;;;4975062;28;20577;-67
2022/04/13 08:33:41;;;;;;;1.10;0.97;;;;;;;;;;4975200;28;20656;-68
2022/04/13 08:36:08;;;;;;;0.30;0.30;;;;;;;;;;4975203;28;20242;-67
2022/04/13 08:38:36;;;;;;;1.10;0.80;;;;;;;;;;4974444;28;21156;-68
2022/04/13 08:41:09;;;;;;;0.53;0.53;;;;;;;;;;4975251;28;20237;-67
2022/04/13 08:43:43;;;;;;;0.73;0.73;;;;;;;;;;4975117;28;20208;-67
2022/04/13 08:46:12;;;;;;;0.57;0.40;;;;;;;;;;4974991;28;20212;-67
2022/04/13 08:48:42;;;;;;;1.70;1.60;;;;;;;;;;4973827;28;20202;-68
2022/04/13 08:51:14;;;;;;;3.10;2.07;;;;;;;;;;4974760;28;20229;-67
2022/04/13 08:53:44;;;;;;;0.60;0.30;;;;;;;;;;4974068;28;20195;-67
2022/04/13 08:56:13;;;;;;;0.30;0.30;;;;;;;;;;4973196;28;20241;-68
2022/04/13 08:58:46;;;;;;;1.43;1.10;;;;;;;;;;4974654;28;20206;-68
2022/04/13 09:01:17;;;;;;;0.00;0.00;;;;;;;;;;4974897;28;20241;-68
2022/04/13 09:03:48;;;;;;;0.37;0.37;;;;;;;;;;4974821;28;20202;-68
2022/04/13 09:06:17;;;;;;;0.00;0.00;;;;;;;;;;4974418;28;20238;-68
2022/04/13 09:08:50;;;;;;;0.00;0.00;;;;;;;;;;4974559;28;20713;-68
2022/04/13 09:11:21;;;;;;;0.77;0.77;;;;;;;;;;4974356;28;20217;-67
2022/04/13 09:13:48;;;;;;;0.20;0.17;;;;;;;;;;4974429;28;20268;-68
2022/04/13 09:16:15;;;;;;;0.10;0.10;;;;;;;;;;4969162;28;20221;-68
2022/04/13 09:18:43;;;;;;;1.13;1.00;;;;;;;;;;4968885;28;20293;-68
2022/04/13 09:21:13;;;;;;;0.00;0.00;;;;;;;;;;4974198;28;20253;-67
2022/04/13 09:23:41;;;;;;;1.80;1.70;;;;;;;;;;4974357;28;20652;-68
2022/04/13 09:26:09;;;;;;;1.40;0.23;;;;;;;;;;4972282;28;20210;-68
2022/04/13 09:28:38;;;;;;;0.40;0.37;;;;;;;;;;4974016;28;20210;-68
2022/04/13 09:31:05;;;;;;;0.00;0.00;;;;;;;;;;4974109;28;20203;-68
2022/04/13 09:33:33;;;;;;;0.40;0.40;;;;;;;;;;4973981;28;20209;-68
2022/04/13 09:36:00;;;;;;;0.00;0.00;;;;;;;;;;4972076;28;20233;-67
2022/04/13 09:38:29;;;;;;;0.47;0.27;;;;;;;;;;4973968;28;20198;-68
2022/04/13 09:41:07;;;;;;;0.13;0.13;;;;;;;;;;4971891;28;20202;-67
2022/04/13 09:43:34;;;;;;;0.83;0.83;;;;;;;;;;4973917;28;20197;-68
2022/04/13 09:46:01;;;;;;;1.63;1.50;;;;;;;;;;4974155;28;20202;-67
2022/04/13 09:48:29;;;;;;;3.50;0.40;;;;;;;;;;4973854;28;20199;-67
2022/04/13 09:50:58;;;;;;;0.77;0.73;;;;;;;;;;4972404;28;20817;-68
2022/04/13 09:53:26;;;;;;;0.47;0.20;;;;;;;;;;4969906;28;20206;-68
2022/04/13 09:55:54;;;;;;;1.87;1.53;;;;;;;;;;4973773;28;20234;-68
2022/04/13 09:58:24;;;;;;;1.13;1.07;;;;;;;;;;4973919;28;20202;-68
2022/04/13 10:00:53;;;;;;;0.77;0.77;;;;;;;;;;4974030;28;20595;-68
2022/04/13 10:03:21;;;;;;;0.47;0.47;;;;;;;;;;4970649;28;20663;-68
2022/04/13 10:05:50;;;;;;;0.33;0.33;;;;;;;;;;4973498;28;20202;-68
2022/04/13 10:08:22;;;;;;;0.77;0.77;;;;;;;;;;4971028;28;20722;-69
2022/04/13 10:10:50;;;;;;;0.47;0.43;;;;;;;;;;4971342;28;20301;-68
2022/04/13 10:13:32;;;;;;;0.10;0.10;;;;;;;;;;4973262;28;20205;-68
2022/04/13 10:16:01;;;;;;;0.97;0.73;;;;;;;;;;4973199;28;20234;-67
2022/04/13 10:18:31;;;;;;;0.20;0.20;;;;;;;;;;4973633;28;20202;-68
2022/04/13 10:20:59;;;;;;;1.33;0.10;;;;;;;;;;4971843;28;20641;-68
2022/04/13 10:23:26;;;;;;;0.00;0.00;;;;;;;;;;4973086;28;20202;-68
2022/04/13 10:26:09;;;;;;;0.50;0.50;;;;;;;;;;4973330;28;20668;-68
2022/04/13 10:28:47;;;;;;;0.40;0.40;;;;;;;;;;4973514;28;20253;-68
2022/04/13 10:31:16;;;;;;;3.50;0.93;;;;;;;;;;4970905;28;20206;-67
2022/04/13 10:33:47;;;;;;;0.90;0.90;;;;;;;;;;4973538;28;20199;-68
2022/04/13 10:36:16;;;;;;;0.47;0.27;;;;;;;;;;4973251;28;20567;-67
2022/04/13 10:38:43;;;;;;;0.10;0.10;;;;;;;;;;4973253;28;20195;-67
2022/04/13 10:41:12;;;;;;;0.30;0.30;;;;;;;;;;4972154;28;20198;-67
2022/04/13 10:43:41;;;;;;;0.67;0.67;;;;;;;;;;4971554;28;20238;-68
2022/04/13 10:46:12;;;;;;;0.10;0.10;;;;;;;;;;4973307;28;20198;-68
2022/04/13 10:48:43;;;;;;;0.00;0.00;;;;;;;;;;4972519;28;20203;-68
2022/04/13 10:51:13;;;;;;;0.45;0.43;;;;;;;;;;4971365;28;20206;-68
2022/04/13 10:53:43;;;;;;;0.00;0.00;;;;;;;;;;4973208;28;20206;-67
2022/04/13 10:56:12;;;;;;;0.00;0.00;;;;;;;;;;4973110;28;20240;-67
2022/04/13 10:58:45;;;;;;;0.07;0.07;;;;;;;;;;4973067;28;20225;-67
2022/04/13 11:01:13;;;;;;;0.40;0.27;;;;;;;;;;4971704;28;20257;-66
2022/04/13 11:03:43;;;;;;;0.00;0.00;;;;;;;;;;4973106;28;20202;-67
2022/04/13 11:06:11;;;;;;;0.20;0.20;;;;;;;;;;4973246;28;20206;-67
2022/04/13 11:08:46;;;;;;;0.28;0.28;;;;;;;;;;4973040;28;20268;-67
2022/04/13 11:11:18;;;;;;;0.08;0.08;;;;;;;;;;4972228;28;20285;-67
2022/04/13 11:13:46;;;;;;;0.13;0.13;;;;;;;;;;4972943;28;20218;-67
2022/04/13 11:16:15;;;;;;;0.20;0.07;;;;;;;;;;4975632;28;20667;-68
2022/04/13 11:18:44;;;;;;;2.57;2.47;;;;;;;;;;4974735;28;20202;-67
2022/04/13 11:21:12;;;;;;;0.82;0.80;;;;;;;;;;4976427;28;20206;-67
2022/04/13 11:23:48;;;;;;;1.83;1.00;;;;;;;;;;4976624;28;20644;-67
2022/04/13 11:26:15;;;;;;;0.55;0.55;;;;;;;;;;4976388;28;20564;-67
2022/04/13 11:28:43;;;;;;;0.10;0.10;;;;;;;;;;4975317;28;20237;-68
2022/04/13 11:31:11;;;;;;;0.00;0.00;;;;;;;;;;4976182;28;20225;-67
2022/04/13 11:33:44;;;;;;;0.30;0.25;;;;;;;;;;4976471;28;20208;-67
2022/04/13 11:36:12;;;;;;;0.03;0.00;;;;;;;;;;4976309;28;20234;-67
2022/04/13 11:38:47;;;;;;;2.40;0.80;;;;;;;;;;4974731;28;20208;-67
2022/04/13 11:41:14;;;;;;;0.05;0.05;;;;;;;;;;4975892;28;20221;-67
2022/04/13 11:43:42;;;;;;;0.75;0.75;;;;;;;;;;4976255;28;20570;-67
2022/04/13 11:46:11;;;;;;;0.00;0.00;;;;;;;;;;4976173;28;20195;-67
2022/04/13 11:48:38;;;;;;;0.00;0.00;;;;;;;;;;4975418;28;20663;-68
2022/04/13 11:51:29;;;;;;;3.72;2.92;;;;;;;;;;4976059;28;20198;-67
2022/04/13 11:54:08;;;;;;;1.60;1.50;;;;;;;;;;4972231;28;20239;-67
2022/04/13 11:56:37;;;;;;;0.77;0.77;;;;;;;;;;4976102;28;20237;-67
2022/04/13 11:59:04;;;;;;;1.25;1.02;;;;;;;;;;4975198;28;20202;-67
2022/04/13 12:01:33;;;;;;;1.23;0.68;;;;;;;;;;4975367;28;20233;-67
2022/04/13 12:04:02;;;;;;;0.20;0.20;;;;;;;;;;4975818;28;20207;-67
2022/04/13 12:06:29;;;;;;;1.02;0.80;;;;;;;;;;4975663;28;20209;-67
2022/04/13 12:08:57;;;;;;;0.05;0.05;;;;;;;;;;4973767;28;20222;-67
2022/04/13 12:11:40;;;;;;;1.67;1.33;;;;;;;;;;4975577;28;20218;-67
2022/04/13 12:14:09;;;;;;;1.25;0.85;;;;;;;;;;4975656;28;20210;-67
2022/04/13 12:16:38;;;;;;;0.25;0.15;;;;;;;;;;4975538;28;20229;-67
2022/04/13 12:19:06;;;;;;;0.00;0.00;;;;;;;;;;4974604;28;20210;-67
2022/04/13 12:21:36;;;;;;;0.45;0.45;;;;;;;;;;4975531;28;20207;-67
2022/04/13 12:24:04;;;;;;;1.13;1.13;;;;;;;;;;4975471;28;20198;-67
2022/04/13 12:26:33;;;;;;;0.75;0.35;;;;;;;;;;4974552;28;20198;-67
2022/04/13 12:29:01;;;;;;;0.03;0.03;;;;;;;;;;4974666;28;20221;-67
2022/04/13 12:31:28;;;;;;;0.32;0.32;;;;;;;;;;4975169;28;20198;-67
2022/04/13 12:34:00;;;;;;;0.22;0.22;;;;;;;;;;4975487;28;20203;-68
2022/04/13 12:36:27;;;;;;;0.28;0.28;;;;;;;;;;4974987;28;20761;-68
2022/04/13 12:38:57;;;;;;;0.30;0.10;;;;;;;;;;4974695;28;20217;-67
2022/04/13 12:41:25;;;;;;;0.15;0.15;;;;;;;;;;4974838;28;20199;-67
2022/04/13 12:43:56;;;;;;;2.00;1.42;;;;;;;;;;4974904;28;20198;-67
2022/04/13 12:46:24;;;;;;;3.72;1.75;;;;;;;;;;4975145;28;20230;-67
2022/04/13 12:48:52;;;;;;;0.10;0.05;;;;;;;;;;4971030;28;20216;-66
2022/04/13 12:51:20;;;;;;;0.15;0.15;;;;;;;;;;4964163;28;20231;-68
2022/04/13 12:53:55;;;;;;;0.20;0.00;;;;;;;;;;4967019;28;20202;-66
2022/04/13 12:56:24;;;;;;;1.10;0.63;;;;;;;;;;4966175;28;20233;-69
2022/04/13 12:58:52;;;;;;;0.25;0.25;;;;;;;;;;4967272;28;20209;-67
2022/04/13 13:01:28;;;;;;;2.30;1.65;;;;;;;;;;4968457;28;20226;-67
2022/04/13 13:03:55;;;;;;;2.10;1.17;;;;;;;;;;4973984;28;20206;-67
2022/04/13 13:06:29;;;;;;;0.38;0.38;;;;;;;;;;4974682;28;20573;-67
2022/04/13 13:09:00;;;;;;;1.08;0.63;;;;;;;;;;4955279;28;20207;-67
2022/04/13 13:11:29;;;;;;;0.00;0.00;;;;;;;;;;4960395;28;20205;-67
2022/04/13 13:14:12;;;;;;;0.20;0.20;;;;;;;;;;4974734;28;20210;-67
2022/04/13 13:16:42;;;;;;;0.43;0.40;;;;;;;;;;4973736;28;20222;-67
2022/04/13 13:19:17;;;;;;;1.15;1.05;;;;;;;;;;4972063;28;20198;-67
2022/04/13 13:22:19;;;;;;;1.25;0.43;;;;;;;;;;4974301;28;20216;-67
2022/04/13 13:24:48;;;;;;;0.10;0.10;;;;;;;;;;4914940;29;20288;-67
2022/04/13 13:27:16;;;;;;;0.17;0.17;;;;;;;;;;4913110;29;20211;-67
2022/04/13 13:29:45;;;;;;;0.47;0.47;;;;;;;;;;4910456;29;20295;-67
2022/04/13 13:32:14;;;;;;;0.32;0.28;;;;;;;;;;4913394;29;20205;-67
2022/04/13 13:34:49;;;;;;;0.80;0.45;;;;;;;;;;4914733;29;20205;-69
2022/04/13 13:37:28;;;;;;;0.00;0.00;;;;;;;;;;4914559;29;20269;-68
2022/04/13 13:39:56;;;;;;;0.20;0.20;;;;;;;;;;4911024;29;20204;-68
2022/04/13 13:42:24;;;;;;;0.05;0.05;;;;;;;;;;4914315;29;20252;-68
2022/04/13 13:44:52;;;;;;;4.90;4.47;;;;;;;;;;4914280;29;20260;-67
2022/04/13 13:47:21;;;;;;;0.82;0.82;;;;;;;;;;4914107;29;20228;-67
2022/04/13 13:49:48;;;;;;;0.00;0.00;;;;;;;;;;4913264;29;20303;-67
2022/04/13 13:52:16;;;;;;;3.53;0.65;;;;;;;;;;4914131;29;20208;-67
2022/04/13 13:54:43;;;;;;;0.30;0.30;;;;;;;;;;4920551;28;20188;-67
2022/04/13 13:57:11;;;;;;;0.00;0.00;;;;;;;;;;4973639;28;20236;-67
2022/04/13 13:59:38;;;;;;;0.00;0.00;;;;;;;;;;4970933;28;21544;-68
2022/04/13 14:02:06;;;;;;;0.05;0.00;;;;;;;;;;4973652;28;20686;-67
2022/04/13 14:04:34;;;;;;;0.22;0.10;;;;;;;;;;4973565;28;20202;-68
2022/04/13 14:07:02;;;;;;;0.28;0.28;;;;;;;;;;4973633;28;20209;-67
2022/04/13 14:09:29;;;;;;;0.05;0.05;;;;;;;;;;4970940;28;20198;-67
2022/04/13 14:11:57;;;;;;;0.00;0.00;;;;;;;;;;4973511;28;20288;-67
2022/04/13 14:14:24;;;;;;;0.22;0.22;;;;;;;;;;4973556;28;20204;-67
2022/04/13 14:16:53;;;;;;;0.20;0.20;;;;;;;;;;4973261;28;20230;-67
2022/04/13 14:19:22;;;;;;;0.50;0.50;;;;;;;;;;4971008;28;20620;-67
2022/04/13 14:21:50;;;;;;;0.90;0.90;;;;;;;;;;4972826;28;20202;-67
2022/04/13 14:24:18;;;;;;;0.63;0.63;;;;;;;;;;4973304;28;20202;-69
2022/04/13 14:26:45;;;;;;;0.65;0.32;;;;;;;;;;4973268;28;20208;-67
2022/04/13 14:29:13;;;;;;;0.00;0.00;;;;;;;;;;4973329;28;20293;-68
2022/04/13 14:31:40;;;;;;;0.03;0.03;;;;;;;;;;4970256;28;20202;-67
2022/04/13 14:34:07;;;;;;;0.00;0.00;;;;;;;;;;4973417;28;20213;-67
2022/04/13 14:36:35;;;;;;;0.00;0.00;;;;;;;;;;4973357;28;20206;-67
2022/04/13 14:39:04;;;;;;;0.00;0.00;;;;;;;;;;4973625;28;20208;-67
2022/04/13 14:41:32;;;;;;;0.00;0.00;;;;;;;;;;4972333;28;20206;-67
2022/04/13 14:43:59;;;;;;;1.02;0.45;;;;;;;;;;4973408;28;20198;-69
2022/04/13 14:46:26;;;;;;;0.85;0.85;;;;;;;;;;4973298;28;20209;-67
2022/04/13 14:48:54;;;;;;;0.00;0.00;;;;;;;;;;4973289;28;20257;-67
2022/04/13 14:51:21;;;;;;;0.10;0.10;;;;;;;;;;4973672;28;20213;-67